Terminal Aerodrome Forecast
Issued by NWS Wilmington, NC

Home | Current Version | Previous Version | Text Only | Print | Product List | Glossary On
Versions: 1 2 3 4 5 6 7 8 9 10 11 12 13 14 15 16 17 18 19 20 21 22 23 24 25 26
000
FTUS42 KILM 272300
TAFLBT
TAF
KLBT 272328Z 2800/2824 04004KT P6SM SCT250
     FM280300 03009KT P6SM SCT025 SCT200
     FM281300 04011G17KT P6SM SCT100 BKN200
     FM281800 03011KT P6SM SCT025 BKN100=

USA.gov is the U.S. government's official web portal to all federal, state and local government web resources and services.